createdAt,value
2023-02-13T00:01:10.948Z,4.00
2023-02-13T00:03:39.200Z,4.20
2023-02-13T00:06:07.897Z,4.03
2023-02-13T00:08:36.784Z,4.53
2023-02-13T00:11:04.918Z,4.53
2023-02-13T00:13:34.232Z,4.00
2023-02-13T00:16:05.796Z,4.47
2023-02-13T00:18:36.708Z,3.87
2023-02-13T00:21:06.690Z,4.20
2023-02-13T00:23:36.255Z,3.97
2023-02-13T00:26:08.050Z,4.43
2023-02-13T00:28:36.318Z,5.90
2023-02-13T00:31:08.830Z,6.07
2023-02-13T00:33:37.381Z,7.33
2023-02-13T00:36:07.647Z,6.80
2023-02-13T00:38:35.839Z,8.07
2023-02-13T00:41:04.279Z,7.50
2023-02-13T00:43:32.433Z,7.40
2023-02-13T00:46:00.726Z,8.03
2023-02-13T00:48:31.619Z,7.70
2023-02-13T00:51:00.364Z,7.50
2023-02-13T00:53:30.993Z,7.27
2023-02-13T00:55:59.365Z,9.00
2023-02-13T00:58:27.489Z,7.60
2023-02-13T01:00:56.630Z,7.70
2023-02-13T01:03:26.639Z,6.90
2023-02-13T01:05:58.114Z,7.10
2023-02-13T01:08:28.390Z,6.90
2023-02-13T01:10:56.971Z,6.10
2023-02-13T01:13:25.760Z,6.13
2023-02-13T01:15:55.289Z,4.90
2023-02-13T01:18:23.791Z,6.27
2023-02-13T01:21:00.793Z,5.60
2023-02-13T01:23:32.195Z,5.60
2023-02-13T01:26:00.492Z,6.07
2023-02-13T01:28:28.951Z,5.30
2023-02-13T01:30:58.950Z,6.77
2023-02-13T01:33:31.571Z,5.90
2023-02-13T01:36:01.067Z,5.50
2023-02-13T01:38:29.297Z,5.20
2023-02-13T01:40:57.599Z,5.17
2023-02-13T01:43:26.180Z,5.80
2023-02-13T01:45:57.620Z,5.80
2023-02-13T01:48:29.025Z,6.13
2023-02-13T01:51:03.906Z,5.70
2023-02-13T01:53:36.847Z,6.50
2023-02-13T01:56:10.134Z,5.90
2023-02-13T01:58:40.933Z,5.50
2023-02-13T02:01:10.758Z,6.30
2023-02-13T02:03:42.781Z,6.07
2023-02-13T02:06:17.581Z,5.37
2023-02-13T02:08:48.533Z,5.37
2023-02-13T02:11:28.010Z,5.13
2023-02-13T02:13:57.122Z,5.33
2023-02-13T02:16:33.797Z,5.30
2023-02-13T02:19:11.678Z,5.70
2023-02-13T02:22:18.410Z,5.83
2023-02-13T02:25:19.397Z,7.20
2023-02-13T02:28:18.718Z,5.60
2023-02-13T02:31:26.587Z,7.20
2023-02-13T02:34:08.697Z,5.83
2023-02-13T02:36:53.712Z,6.80
2023-02-13T02:39:31.822Z,6.00
2023-02-13T02:42:11.388Z,6.20
2023-02-13T02:44:46.062Z,5.97
2023-02-13T02:47:39.512Z,5.63
2023-02-13T02:50:30.739Z,6.20
2023-02-13T02:53:08.873Z,6.17
2023-02-13T02:55:44.631Z,5.93
2023-02-13T02:58:39.455Z,6.60
2023-02-13T03:01:30.921Z,5.97
2023-02-13T03:04:19.032Z,6.40
2023-02-13T03:06:52.874Z,5.43
2023-02-13T03:09:42.343Z,5.53
2023-02-13T03:12:30.131Z,6.40
2023-02-13T03:14:58.252Z,5.33
2023-02-13T03:17:43.631Z,6.33
2023-02-13T03:20:53.072Z,6.20
2023-02-13T03:23:34.930Z,6.10
2023-02-13T03:26:33.166Z,5.90
2023-02-13T03:29:30.112Z,5.47
2023-02-13T03:32:05.939Z,6.10
2023-02-13T03:34:52.108Z,5.40
2023-02-13T03:37:45.546Z,6.03
2023-02-13T03:40:19.277Z,5.97
2023-02-13T03:42:53.688Z,5.50
2023-02-13T03:45:43.801Z,5.30
2023-02-13T03:48:49.241Z,6.13
2023-02-13T03:51:23.521Z,5.80
2023-02-13T03:53:55.792Z,6.70
2023-02-13T03:56:45.779Z,6.40
2023-02-13T03:59:22.624Z,7.60
2023-02-13T04:02:00.904Z,7.03
2023-02-13T04:04:36.885Z,7.20
2023-02-13T04:07:08.356Z,7.30
2023-02-13T04:09:40.298Z,7.83
2023-02-13T04:12:15.500Z,8.40
2023-02-13T04:14:51.116Z,7.30
2023-02-13T04:17:22.881Z,8.63
2023-02-13T04:19:51.185Z,8.40
2023-02-13T04:22:20.561Z,9.13
2023-02-13T04:24:48.930Z,10.13
2023-02-13T04:27:19.281Z,11.20
2023-02-13T04:29:47.368Z,10.67
2023-02-13T04:32:17.173Z,9.70
2023-02-13T04:34:45.263Z,10.97
2023-02-13T04:37:13.341Z,11.00
2023-02-13T04:39:41.474Z,11.70
2023-02-13T04:42:09.527Z,11.10
2023-02-13T04:44:39.017Z,12.53
2023-02-13T04:47:07.093Z,12.73
2023-02-13T04:49:35.239Z,11.23
2023-02-13T04:52:03.336Z,12.37
2023-02-13T04:54:31.409Z,12.63
2023-02-13T04:56:59.511Z,12.50
2023-02-13T04:59:27.711Z,11.57
2023-02-13T05:01:59.147Z,12.17
2023-02-13T05:04:27.374Z,15.43
2023-02-13T05:06:55.483Z,16.37
2023-02-13T05:09:23.578Z,17.63
2023-02-13T05:11:53.294Z,17.17
2023-02-13T05:14:21.778Z,19.30
2023-02-13T05:16:50.377Z,16.27
2023-02-13T05:19:19.923Z,16.87
2023-02-13T05:22:05.981Z,17.17
2023-02-13T05:24:34.119Z,16.77
2023-02-13T05:27:02.248Z,18.20
2023-02-13T05:29:30.341Z,16.43
2023-02-13T05:31:59.780Z,17.00
2023-02-13T05:34:30.281Z,18.40
2023-02-13T05:36:58.590Z,16.70
2023-02-13T05:39:26.929Z,16.73
2023-02-13T05:41:55.046Z,18.17
2023-02-13T05:44:23.188Z,19.40
2023-02-13T05:46:53.258Z,22.40
2023-02-13T05:49:22.902Z,19.43
2023-02-13T05:51:53.157Z,21.50
2023-02-13T05:54:21.237Z,20.67
2023-02-13T05:56:49.453Z,21.17
2023-02-13T05:59:17.642Z,20.17
2023-02-13T06:01:45.730Z,15.93
2023-02-13T06:04:13.847Z,15.93
2023-02-13T06:06:41.953Z,13.93
2023-02-13T06:09:11.546Z,12.97
2023-02-13T06:11:39.657Z,13.90
2023-02-13T06:14:07.737Z,13.17
2023-02-13T06:16:35.948Z,17.90
2023-02-13T06:19:04.091Z,18.40
2023-02-13T06:21:33.360Z,15.33
2023-02-13T06:24:01.462Z,13.17
2023-02-13T06:26:30.990Z,13.83
2023-02-13T06:28:59.114Z,12.87
2023-02-13T06:31:27.340Z,15.37
2023-02-13T06:33:55.487Z,15.03
2023-02-13T06:36:23.626Z,15.10
2023-02-13T06:38:51.770Z,14.00
2023-02-13T06:41:19.918Z,13.87
2023-02-13T06:43:49.657Z,15.20
2023-02-13T06:46:17.819Z,19.50
2023-02-13T06:48:45.926Z,19.17
2023-02-13T06:51:14.006Z,15.00
2023-02-13T06:53:42.147Z,17.90
2023-02-13T06:56:11.204Z,15.87
2023-02-13T06:58:40.137Z,15.80
2023-02-13T07:01:09.696Z,16.53
2023-02-13T07:03:37.918Z,17.67
2023-02-13T07:06:06.298Z,19.60
2023-02-13T07:08:34.465Z,21.27
2023-02-13T07:11:02.575Z,18.40
2023-02-13T07:13:30.728Z,17.60
2023-02-13T07:16:02.194Z,17.37
2023-02-13T07:18:31.705Z,17.73
2023-02-13T07:21:00.001Z,16.97
2023-02-13T07:23:28.174Z,18.23
2023-02-13T07:25:56.356Z,16.00
2023-02-13T07:28:24.558Z,16.90
2023-02-13T07:30:52.844Z,17.80
2023-02-13T07:33:24.923Z,20.03
2023-02-13T07:35:54.397Z,18.40
2023-02-13T07:38:22.527Z,18.73
2023-02-13T07:40:50.909Z,18.90
2023-02-13T07:43:19.103Z,20.90
2023-02-13T07:45:47.870Z,20.90
2023-02-13T07:48:15.976Z,20.60
2023-02-13T07:50:44.106Z,19.67
2023-02-13T07:53:13.578Z,19.40
2023-02-13T07:55:41.741Z,21.03
2023-02-13T07:58:09.936Z,19.83
2023-02-13T08:00:38.094Z,19.30
2023-02-13T08:03:06.338Z,18.73
2023-02-13T08:05:35.603Z,20.53
2023-02-13T08:08:04.104Z,18.90
2023-02-13T08:10:51.238Z,18.50
2023-02-13T08:13:19.635Z,20.93
2023-02-13T08:15:48.169Z,20.73
2023-02-13T08:18:18.851Z,19.17
2023-02-13T08:20:48.546Z,18.90
2023-02-13T08:23:16.865Z,18.87
2023-02-13T08:25:47.747Z,17.87
2023-02-13T08:28:15.949Z,20.13
2023-02-13T08:30:44.185Z,19.27
2023-02-13T08:33:12.319Z,20.03
2023-02-13T08:35:40.427Z,18.47
2023-02-13T08:38:08.545Z,19.93
2023-02-13T08:40:36.698Z,18.17
2023-02-13T08:43:07.346Z,19.37
2023-02-13T08:45:36.558Z,19.33
2023-02-13T08:48:05.127Z,20.03
2023-02-13T08:50:34.625Z,20.97
2023-02-13T08:53:03.760Z,21.73
2023-02-13T08:55:32.248Z,22.33
2023-02-13T08:58:02.117Z,20.20
2023-02-13T09:00:31.926Z,21.77
2023-02-13T09:03:02.362Z,20.83
2023-02-13T09:05:32.630Z,21.70
2023-02-13T09:08:02.744Z,21.20
2023-02-13T09:10:31.513Z,22.77
2023-02-13T09:13:01.234Z,22.77
2023-02-13T09:15:29.407Z,22.93
2023-02-13T09:17:59.182Z,24.10
2023-02-13T09:20:27.753Z,24.10
2023-02-13T09:22:57.513Z,23.43
2023-02-13T09:25:25.733Z,25.30
2023-02-13T09:27:53.874Z,24.50
2023-02-13T09:30:24.366Z,23.93
2023-02-13T09:32:53.364Z,23.70
2023-02-13T09:35:24.219Z,23.57
2023-02-13T09:37:52.336Z,24.70
2023-02-13T09:57:35.702Z,26.40
2023-02-13T10:00:13.414Z,26.10
2023-02-13T10:02:56.060Z,24.97
2023-02-13T10:05:38.407Z,26.60
2023-02-13T10:08:17.249Z,28.80
2023-02-13T10:10:53.096Z,25.83
2023-02-13T10:13:32.235Z,28.67
2023-02-13T10:16:09.455Z,25.90
2023-02-13T10:18:46.164Z,27.50
2023-02-13T10:21:15.747Z,30.17
2023-02-13T10:23:47.342Z,27.97
2023-02-13T10:26:21.314Z,29.00
2023-02-13T10:29:13.885Z,29.73
2023-02-13T10:31:45.727Z,30.70
2023-02-13T10:34:17.223Z,28.10
2023-02-13T10:36:47.189Z,30.37
2023-02-13T10:39:24.751Z,30.67
2023-02-13T10:41:57.758Z,28.67
2023-02-13T10:44:40.340Z,27.83
2023-02-13T10:47:25.844Z,29.07
2023-02-13T10:50:04.356Z,27.50
2023-02-13T10:52:45.446Z,29.50
2023-02-13T10:55:30.264Z,30.07
2023-02-13T10:58:09.420Z,31.23
2023-02-13T11:00:43.296Z,32.03
2023-02-13T11:03:19.973Z,30.13
2023-02-13T11:05:48.347Z,31.77
2023-02-13T11:08:22.243Z,41.40
2023-02-13T11:10:50.780Z,37.50
2023-02-13T11:13:21.243Z,34.53
2023-02-13T11:16:01.985Z,34.33
2023-02-13T11:18:34.335Z,35.47
2023-02-13T11:21:08.867Z,34.93
2023-02-13T11:23:41.621Z,31.47
2023-02-13T11:26:12.563Z,34.30
2023-02-13T11:28:48.057Z,37.60
2023-02-13T11:31:25.357Z,39.70
2023-02-13T11:33:58.585Z,39.10
2023-02-13T11:36:29.373Z,38.87
2023-02-13T11:39:02.936Z,37.27
2023-02-13T11:41:33.097Z,35.73
2023-02-13T11:44:04.175Z,42.70
2023-02-13T11:46:46.058Z,39.20
2023-02-13T11:49:20.945Z,45.53
2023-02-13T11:51:50.678Z,42.93
2023-02-13T11:54:31.651Z,42.33
2023-02-13T11:57:04.891Z,42.60
2023-02-13T11:59:40.995Z,41.30
2023-02-13T12:02:18.731Z,42.20
2023-02-13T12:04:49.964Z,46.53
2023-02-13T12:07:22.413Z,42.20
2023-02-13T12:09:55.257Z,43.87
2023-02-13T12:12:29.949Z,39.90
2023-02-13T12:14:59.364Z,43.07
2023-02-13T12:17:32.535Z,44.03
2023-02-13T12:20:02.351Z,45.80
2023-02-13T12:22:42.958Z,44.90
2023-02-13T12:25:35.725Z,45.93
2023-02-13T12:28:15.865Z,48.57
2023-02-13T12:31:22.095Z,43.53
2023-02-13T12:34:18.739Z,41.30
2023-02-13T12:37:01.433Z,38.70
2023-02-13T12:39:34.921Z,37.60
2023-02-13T12:42:23.153Z,39.23
2023-02-13T12:45:05.657Z,40.07
2023-02-13T12:47:41.097Z,37.03
2023-02-13T12:50:41.009Z,35.43
2023-02-13T12:53:35.602Z,38.60
2023-02-13T12:56:31.930Z,39.40
2023-02-13T12:59:09.305Z,41.87
2023-02-13T13:01:55.807Z,43.03
2023-02-13T13:04:31.009Z,41.37
2023-02-13T13:07:18.846Z,40.73
2023-02-13T13:10:01.864Z,39.30
2023-02-13T13:12:42.303Z,40.37
2023-02-13T13:15:18.325Z,41.43
2023-02-13T13:17:59.242Z,41.33
2023-02-13T13:20:57.883Z,46.53
2023-02-13T13:23:32.500Z,38.57
2023-02-13T13:26:15.509Z,42.70
2023-02-13T13:28:47.080Z,43.77
2023-02-13T13:31:16.618Z,45.17
2023-02-13T13:33:48.252Z,42.47
2023-02-13T13:36:25.325Z,43.80
2023-02-13T13:39:01.857Z,43.67
2023-02-13T13:41:42.649Z,44.87
2023-02-13T13:45:02.150Z,43.20
2023-02-13T13:47:47.083Z,44.03
2023-02-13T13:50:22.355Z,44.63
2023-02-13T13:53:10.869Z,44.10
2023-02-13T13:56:02.869Z,44.60
2023-02-13T13:58:41.460Z,47.60
2023-02-13T14:01:29.485Z,43.50
2023-02-13T14:03:59.391Z,44.77
2023-02-13T14:06:29.554Z,45.40
2023-02-13T14:09:03.999Z,46.37
2023-02-13T14:11:35.812Z,43.30
2023-02-13T14:14:53.083Z,41.10
2023-02-13T14:18:01.261Z,44.63
2023-02-13T14:20:36.937Z,43.83
2023-02-13T14:23:49.645Z,43.47
2023-02-13T14:26:31.172Z,45.63
2023-02-13T14:29:30.895Z,43.70
2023-02-13T14:32:03.346Z,48.77
2023-02-13T14:34:33.920Z,45.30
2023-02-13T14:37:21.020Z,44.30
2023-02-13T14:40:25.211Z,43.20
2023-02-13T14:42:57.457Z,45.47
2023-02-13T14:45:32.298Z,45.57
2023-02-13T14:48:07.407Z,44.67
2023-02-13T14:50:46.550Z,47.20
2023-02-13T14:53:24.661Z,43.70
2023-02-13T14:55:59.657Z,44.43
2023-02-13T14:58:32.463Z,43.90
2023-02-13T15:01:05.959Z,43.00
2023-02-13T15:03:42.055Z,44.27
2023-02-13T15:06:17.615Z,45.07
2023-02-13T15:08:49.690Z,42.73
2023-02-13T15:11:39.070Z,40.77
2023-02-13T15:14:18.361Z,42.10
2023-02-13T15:16:51.541Z,43.27
2023-02-13T15:19:21.493Z,39.40
2023-02-13T15:21:55.942Z,37.77
2023-02-13T15:24:25.612Z,45.03
2023-02-13T15:27:02.084Z,48.07
2023-02-13T15:29:47.666Z,49.10
2023-02-13T15:32:27.238Z,44.60
2023-02-13T15:34:55.304Z,46.70
2023-02-13T15:37:25.139Z,45.70
2023-02-13T15:39:53.250Z,45.80
2023-02-13T15:42:21.873Z,43.00
2023-02-13T15:44:55.202Z,44.03
2023-02-13T15:47:29.356Z,41.43
2023-02-13T15:49:57.774Z,39.40
2023-02-13T15:52:32.373Z,37.80
2023-02-13T15:55:00.557Z,40.23
2023-02-13T15:57:30.217Z,38.10
2023-02-13T15:59:59.709Z,35.50
2023-02-13T16:02:36.154Z,40.13
2023-02-13T16:05:04.532Z,38.97
2023-02-13T16:07:47.864Z,38.50
2023-02-13T16:10:16.783Z,36.43
2023-02-13T16:12:48.164Z,40.67
2023-02-13T16:15:19.343Z,38.83
2023-02-13T16:17:49.951Z,35.90
2023-02-13T16:20:22.209Z,39.33
2023-02-13T16:22:53.492Z,37.60
2023-02-13T16:25:26.117Z,37.50
2023-02-13T16:27:57.642Z,37.10
2023-02-13T16:30:33.827Z,36.30
2023-02-13T16:33:22.691Z,38.00
2023-02-13T16:35:52.537Z,38.30
2023-02-13T16:38:30.904Z,37.20
2023-02-13T16:41:00.695Z,38.63
2023-02-13T16:43:46.496Z,40.00
2023-02-13T16:46:25.222Z,36.80
2023-02-13T16:49:21.462Z,38.90
2023-02-13T16:51:52.840Z,38.03
2023-02-13T16:54:33.246Z,36.90
2023-02-13T16:57:04.565Z,40.47
2023-02-13T16:59:59.726Z,41.50
2023-02-13T17:02:28.653Z,39.60
2023-02-13T17:05:03.198Z,37.27
2023-02-13T17:07:34.867Z,39.67
2023-02-13T17:10:06.061Z,36.27
2023-02-13T17:12:38.500Z,55.50
2023-02-13T17:15:13.035Z,38.70
2023-02-13T17:17:41.462Z,34.20
2023-02-13T17:20:17.667Z,39.73
2023-02-13T17:22:47.925Z,30.37
2023-02-13T17:25:21.957Z,27.83
2023-02-13T17:27:50.748Z,29.70
2023-02-13T17:30:20.783Z,32.53
2023-02-13T17:32:51.171Z,29.87
2023-02-13T17:35:20.755Z,28.40
2023-02-13T17:37:48.938Z,31.90
2023-02-13T17:40:18.029Z,32.53
2023-02-13T17:42:47.746Z,34.07
2023-02-13T17:45:18.528Z,28.47
2023-02-13T17:47:46.957Z,26.67
2023-02-13T17:50:17.318Z,29.13
2023-02-13T17:52:49.072Z,29.80
2023-02-13T17:55:21.080Z,30.60
2023-02-13T17:57:49.499Z,29.60
2023-02-13T18:00:18.524Z,28.90
2023-02-13T18:02:47.934Z,30.97
2023-02-13T18:05:16.888Z,30.40
2023-02-13T18:07:47.332Z,28.97
2023-02-13T18:10:17.902Z,33.40
2023-02-13T18:12:47.414Z,32.70
2023-02-13T18:15:16.354Z,31.67
2023-02-13T18:17:44.854Z,30.70
2023-02-13T18:20:14.727Z,28.40
2023-02-13T18:22:43.058Z,30.80
2023-02-13T18:25:13.141Z,29.67
2023-02-13T18:27:41.629Z,29.40
2023-02-13T18:30:12.520Z,27.77
2023-02-13T18:32:40.712Z,25.33
2023-02-13T18:35:09.427Z,29.40
2023-02-13T18:37:39.173Z,28.30
2023-02-13T18:40:08.781Z,28.40
2023-02-13T18:42:38.957Z,27.17
2023-02-13T18:45:07.931Z,29.20
2023-02-13T18:47:36.070Z,30.07
2023-02-13T18:50:04.749Z,28.80
2023-02-13T18:52:32.846Z,28.73
2023-02-13T18:55:00.911Z,30.47
2023-02-13T18:57:29.257Z,29.47
2023-02-13T18:59:58.856Z,31.27
2023-02-13T19:02:27.048Z,30.87
2023-02-13T19:04:55.159Z,30.40
2023-02-13T19:07:23.473Z,32.73
2023-02-13T19:09:51.588Z,34.93
2023-02-13T19:12:19.787Z,34.83
2023-02-13T19:14:48.137Z,32.37
2023-02-13T19:17:17.828Z,33.67
2023-02-13T19:19:46.382Z,35.23
2023-02-13T19:22:14.553Z,34.97
2023-02-13T19:24:42.657Z,31.07
2023-02-13T19:27:11.350Z,32.23
2023-02-13T19:29:39.488Z,33.50
2023-02-13T19:32:07.703Z,31.40
2023-02-13T19:34:37.241Z,31.30
2023-02-13T19:37:05.361Z,31.30
2023-02-13T19:39:33.530Z,31.10
2023-02-13T19:42:01.605Z,32.07
2023-02-13T19:44:29.767Z,30.23
2023-02-13T19:46:57.902Z,32.07
2023-02-13T19:49:26.049Z,32.30
2023-02-13T19:51:55.525Z,29.33
2023-02-13T19:54:23.712Z,28.80
2023-02-13T19:56:54.626Z,29.57
2023-02-13T19:59:22.765Z,27.07
2023-02-13T20:01:50.926Z,29.13
2023-02-13T20:04:19.057Z,27.20
2023-02-13T20:06:47.132Z,26.23
2023-02-13T20:09:16.664Z,24.10
2023-02-13T20:11:45.436Z,25.43
2023-02-13T20:14:15.438Z,26.00
2023-02-13T20:16:45.656Z,27.63
2023-02-13T20:19:14.228Z,25.97
2023-02-13T20:21:43.454Z,25.47
2023-02-13T20:24:13.032Z,28.33
2023-02-13T20:26:42.876Z,28.90
2023-02-13T20:29:11.023Z,26.37
2023-02-13T20:31:41.353Z,27.40
2023-02-13T20:34:09.981Z,26.50
2023-02-13T20:36:38.115Z,28.03
2023-02-13T20:39:07.797Z,25.70
2023-02-13T20:41:37.990Z,29.20
2023-02-13T20:44:09.435Z,30.40
2023-02-13T20:46:39.755Z,29.90
2023-02-13T20:49:08.951Z,27.90
2023-02-13T20:51:37.548Z,27.03
2023-02-13T20:54:06.499Z,26.60
2023-02-13T20:56:34.602Z,24.57
2023-02-13T20:59:03.349Z,29.70
2023-02-13T21:01:34.993Z,27.87
2023-02-13T21:04:03.443Z,27.80
2023-02-13T21:06:33.395Z,27.53
2023-02-13T21:09:02.608Z,25.80
2023-02-13T21:11:34.342Z,23.80
2023-02-13T21:14:03.381Z,22.37
2023-02-13T21:16:34.620Z,22.23
2023-02-13T21:19:05.615Z,24.67
2023-02-13T21:21:35.354Z,25.37
2023-02-13T21:24:08.387Z,25.00
2023-02-13T21:26:37.590Z,23.77
2023-02-13T21:29:06.894Z,22.40
2023-02-13T21:31:38.310Z,20.93
2023-02-13T21:34:09.134Z,23.40
2023-02-13T21:36:38.333Z,26.30
2023-02-13T21:39:09.074Z,23.33
2023-02-13T21:41:38.179Z,23.40
2023-02-13T21:44:07.091Z,33.07
2023-02-13T21:46:37.395Z,27.20
2023-02-13T21:49:07.761Z,23.70
2023-02-13T21:51:37.768Z,28.10
2023-02-13T21:54:06.743Z,24.50
2023-02-13T21:56:37.117Z,26.20
2023-02-13T21:59:06.301Z,30.27
2023-02-13T22:01:47.509Z,27.67
2023-02-13T22:04:15.966Z,25.60
2023-02-13T22:06:44.861Z,29.07
2023-02-13T22:09:15.437Z,27.53
2023-02-13T22:11:44.305Z,22.90
2023-02-13T22:14:15.900Z,22.83
2023-02-13T22:16:46.703Z,23.60
2023-02-13T22:19:16.910Z,25.53
2023-02-13T22:21:46.292Z,24.83
2023-02-13T22:24:14.966Z,21.93
2023-02-13T22:26:45.303Z,27.60
2023-02-13T22:29:15.969Z,24.10
2023-02-13T22:31:46.467Z,23.73
2023-02-13T22:34:15.842Z,19.80
2023-02-13T22:36:44.165Z,20.27
2023-02-13T22:39:12.813Z,22.73
2023-02-13T22:41:41.101Z,18.30
2023-02-13T22:44:09.303Z,26.07
2023-02-13T22:46:37.576Z,21.03
2023-02-13T22:49:07.245Z,18.10
2023-02-13T22:51:37.633Z,20.37
2023-02-13T22:54:06.925Z,20.00
2023-02-13T22:56:35.152Z,18.37
2023-02-13T22:59:03.612Z,19.20
2023-02-13T23:01:31.704Z,17.47
2023-02-13T23:04:00.108Z,21.33
2023-02-13T23:06:29.771Z,18.33
2023-02-13T23:08:58.673Z,18.07
2023-02-13T23:11:46.279Z,18.60
2023-02-13T23:14:14.971Z,19.10
2023-02-13T23:17:01.545Z,19.20
2023-02-13T23:19:30.270Z,16.90
2023-02-13T23:22:00.172Z,20.77
2023-02-13T23:24:28.770Z,19.07
2023-02-13T23:26:56.906Z,17.40
2023-02-13T23:29:25.062Z,16.97
2023-02-13T23:31:53.453Z,18.07
2023-02-13T23:34:21.655Z,18.57
2023-02-13T23:36:50.045Z,17.53
2023-02-13T23:39:19.903Z,16.93
2023-02-13T23:41:48.015Z,16.63
2023-02-13T23:44:16.142Z,17.43
2023-02-13T23:46:44.365Z,17.07
2023-02-13T23:49:12.498Z,16.20
2023-02-13T23:51:40.648Z,16.60
2023-02-13T23:54:08.829Z,16.30
2023-02-13T23:56:38.330Z,17.50
2023-02-13T23:59:06.486Z,16.60
